Hlavní strana
METAR-TAF:

METAR-TAF

Letiště :

Letiště Tbilisi

Tbilisi, Gruzie

zeměpisná šířka: 41-40-09N, zeměpisná délka: 044-57-17E, výška: 495 m

Aktuální stav počasí

Zpráva byla vytvořena před 31 minutami, v 00:00 UTC
vítr z různých směrů 2 kt
Teplota 7°C
Vlhkost vzduchu 81%
Tlak 1028 hPa
Viditelnost 10 km a více
Žádná oblačnost pod 1500 m, nevyskytují se cumulonimby.

METAR: UGTB 220000Z VRB02KT CAVOK 07/04 Q1028

Čas: 04:31 (00:31 UTC)

Předpověď počasí

Zpráva byla vytvořena před 1 hodinou a 31 minutami, v 23:00 UTC
Předpověď platná od 22 v 00 UTC do 22 v 24 UTC
vítr z různých směrů 2 kt
Viditelnost 10 km a více
Žádná oblačnost pod 1500 m, nevyskytují se cumulonimby.
Pravděpodobnost 40% :
Dočasný
od 22 v 00 UTC do 22 v 04 UTC
Polojasno ve výšce 4000 ft

TAF: UGTB 212300Z 2200/2224 VRB02KT CAVOK TX16/2211Z TN05/2202Z PROB40 TEMPO 2200/2204 SCT040

Stav a předpovědi počasí z více než 4 000 letišť (zprávy METAR a TAF).

Červené a žluté tečky na mapě představují dostupné meteorologické stanice.

Když kurzor umístíte na tečku, zobrazí se název stanice.

Pak kliknutím zobrazíte stav a předpověď počasí.

Chcete-li změnit mapu, kliknutím na zelené tlačítko se znaménkem +mapu přiblížíte, kliknutím na zelené tlačítko se znaménkem – mapu oddálíte a kliknutím na zelené šipky přejdete na sousední mapy.


METAR-TAF: